createdAt,value
2018-09-15T00:00:25.680Z,11.86
2018-09-15T00:02:01.582Z,11.84
2018-09-15T00:03:39.751Z,11.83
2018-09-15T00:05:15.784Z,11.81
2018-09-15T00:08:32.876Z,11.80
2018-09-15T00:10:10.833Z,11.81
2018-09-15T00:11:46.415Z,11.83
2018-09-15T00:13:22.464Z,11.88
2018-09-15T00:15:00.055Z,11.82
2018-09-15T00:16:39.588Z,11.84
2018-09-15T00:18:18.874Z,11.84
2018-09-15T00:19:54.582Z,11.79
2018-09-15T00:21:30.439Z,11.79
2018-09-15T00:23:08.091Z,11.79
2018-09-15T00:24:46.403Z,11.77
2018-09-15T00:26:23.679Z,11.78
2018-09-15T00:27:59.419Z,11.75
2018-09-15T00:29:34.284Z,11.73
2018-09-15T00:31:09.993Z,11.72
2018-09-15T00:32:45.058Z,11.70
2018-09-15T00:34:20.360Z,11.67
2018-09-15T00:35:55.537Z,11.65
2018-09-15T00:37:30.449Z,11.64
2018-09-15T00:39:08.536Z,11.63
2018-09-15T00:40:43.817Z,11.62
2018-09-15T00:42:19.010Z,11.55
2018-09-15T00:43:54.047Z,11.54
2018-09-15T00:45:29.443Z,11.45
2018-09-15T00:47:05.325Z,11.36
2018-09-15T00:48:40.653Z,11.31
2018-09-15T00:50:16.306Z,11.24
2018-09-15T00:51:52.475Z,11.12
2018-09-15T00:53:27.996Z,11.02
2018-09-15T00:55:03.905Z,10.91
2018-09-15T00:56:38.768Z,10.83
2018-09-15T00:58:14.410Z,10.71
2018-09-15T00:59:49.459Z,10.62
2018-09-15T01:01:24.844Z,10.49
2018-09-15T01:03:01.183Z,10.43
2018-09-15T01:04:36.685Z,10.29
2018-09-15T01:06:12.730Z,10.22
2018-09-15T01:07:48.066Z,10.08
2018-09-15T01:09:23.068Z,10.04
2018-09-15T01:11:00.674Z,9.95
2018-09-15T01:12:36.681Z,9.84
2018-09-15T01:14:11.799Z,9.70
2018-09-15T01:15:47.788Z,9.69
2018-09-15T01:17:23.005Z,9.49
2018-09-15T01:18:59.746Z,9.39
2018-09-15T01:20:34.993Z,9.38
2018-09-15T01:22:16.298Z,9.20
2018-09-15T01:23:51.341Z,9.18
2018-09-15T01:25:27.684Z,9.24
2018-09-15T01:27:03.799Z,9.14
2018-09-15T01:28:41.021Z,9.04
2018-09-15T01:30:17.743Z,8.92
2018-09-15T01:31:52.984Z,8.94
2018-09-15T01:33:29.733Z,8.87
2018-09-15T01:35:05.860Z,8.86
2018-09-15T01:36:40.784Z,8.82
2018-09-15T01:38:16.188Z,8.80
2018-09-15T01:39:51.665Z,8.71
2018-09-15T01:41:31.253Z,8.68
2018-09-15T01:43:07.420Z,8.73
2018-09-15T01:44:43.410Z,8.67
2018-09-15T01:46:18.792Z,8.64
2018-09-15T01:47:54.081Z,8.61
2018-09-15T01:49:30.210Z,8.73
2018-09-15T01:51:06.019Z,8.70
2018-09-15T01:52:45.251Z,8.69
2018-09-15T01:54:21.396Z,8.70
2018-09-15T01:55:58.627Z,8.67
2018-09-15T01:57:34.650Z,8.65
2018-09-15T01:59:09.990Z,8.55
2018-09-15T02:00:47.197Z,8.47
2018-09-15T02:02:22.352Z,8.51
2018-09-15T02:03:57.274Z,8.47
2018-09-15T02:05:32.799Z,8.43
2018-09-15T02:07:10.402Z,8.56
2018-09-15T02:08:46.511Z,8.65
2018-09-15T02:10:22.915Z,8.75
2018-09-15T02:11:59.579Z,8.81
2018-09-15T02:13:40.812Z,8.84
2018-09-15T02:15:20.538Z,8.97
2018-09-15T02:17:02.744Z,9.06
2018-09-15T02:18:39.112Z,9.17
2018-09-15T02:20:15.646Z,9.20
2018-09-15T02:21:51.764Z,9.26
2018-09-15T02:23:32.068Z,9.36
2018-09-15T02:25:07.411Z,9.52
2018-09-15T02:26:46.018Z,9.67
2018-09-15T02:28:25.138Z,9.72
2018-09-15T02:30:05.322Z,9.81
2018-09-15T02:31:43.228Z,9.79
2018-09-15T02:33:33.631Z,9.75
2018-09-15T02:35:22.796Z,9.73
2018-09-15T02:37:19.499Z,9.69
2018-09-15T02:39:01.832Z,9.69
2018-09-15T02:40:45.658Z,9.65
2018-09-15T02:42:26.249Z,9.58
2018-09-15T02:44:01.873Z,9.52
2018-09-15T02:45:37.499Z,9.46
2018-09-15T02:47:14.184Z,9.55
2018-09-15T02:48:49.625Z,9.37
2018-09-15T02:50:26.000Z,9.25
2018-09-15T02:52:03.247Z,9.29
2018-09-15T02:53:41.978Z,9.31
2018-09-15T02:55:17.868Z,9.14
2018-09-15T02:56:54.534Z,9.01
2018-09-15T02:58:32.077Z,8.96
2018-09-15T03:00:09.370Z,8.86
2018-09-15T03:01:44.807Z,8.91
2018-09-15T03:03:22.435Z,8.83
2018-09-15T03:04:57.644Z,8.64
2018-09-15T03:06:34.707Z,8.68
2018-09-15T03:08:09.929Z,8.47
2018-09-15T03:09:46.401Z,8.56
2018-09-15T03:11:21.668Z,8.55
2018-09-15T03:12:59.605Z,8.47
2018-09-15T03:14:35.051Z,8.34
2018-09-15T03:16:12.009Z,8.42
2018-09-15T03:17:48.801Z,8.46
2018-09-15T03:19:27.785Z,8.42
2018-09-15T03:21:02.862Z,8.39
2018-09-15T03:22:40.382Z,8.38
2018-09-15T03:24:18.028Z,8.33
2018-09-15T03:25:53.766Z,8.24
2018-09-15T03:27:30.621Z,8.19
2018-09-15T03:29:06.635Z,8.07
2018-09-15T03:30:42.234Z,8.09
2018-09-15T03:32:19.880Z,8.04
2018-09-15T03:33:57.195Z,7.98
2018-09-15T03:35:33.695Z,7.84
2018-09-15T03:37:10.881Z,7.96
2018-09-15T03:38:45.785Z,7.98
2018-09-15T03:40:22.506Z,7.94
2018-09-15T03:41:57.661Z,7.90
2018-09-15T03:43:34.556Z,7.93
2018-09-15T03:45:10.413Z,7.81
2018-09-15T03:46:48.248Z,7.68
2018-09-15T03:48:25.100Z,7.66
2018-09-15T03:50:00.461Z,7.66
2018-09-15T03:51:37.753Z,7.65
2018-09-15T03:53:14.093Z,7.59
2018-09-15T03:54:50.712Z,7.66
2018-09-15T03:56:28.955Z,7.62
2018-09-15T03:58:05.245Z,7.54
2018-09-15T03:59:40.100Z,7.43
2018-09-15T04:01:16.620Z,7.45
2018-09-15T04:02:52.572Z,7.52
2018-09-15T04:04:27.464Z,7.48
2018-09-15T04:06:02.685Z,7.40
2018-09-15T04:07:38.486Z,7.40
2018-09-15T04:09:14.295Z,7.41
2018-09-15T04:10:49.816Z,7.40
2018-09-15T04:12:27.544Z,7.47
2018-09-15T04:14:04.686Z,7.50
2018-09-15T04:15:42.236Z,7.46
2018-09-15T04:17:17.529Z,7.52
2018-09-15T04:18:52.463Z,7.51
2018-09-15T04:20:31.522Z,7.54
2018-09-15T04:22:07.792Z,7.49
2018-09-15T04:23:44.580Z,7.35
2018-09-15T04:25:20.752Z,7.48
2018-09-15T04:26:55.727Z,7.50
2018-09-15T04:28:31.333Z,7.54
2018-09-15T04:30:12.537Z,7.54
2018-09-15T04:31:47.700Z,7.57
2018-09-15T04:33:23.711Z,7.58
2018-09-15T04:34:58.829Z,7.58
2018-09-15T04:36:35.846Z,7.57
2018-09-15T04:38:12.194Z,7.55
2018-09-15T04:39:48.923Z,7.68
2018-09-15T04:41:36.098Z,7.77
2018-09-15T04:43:17.523Z,7.82
2018-09-15T04:44:53.405Z,7.80
2018-09-15T04:46:30.590Z,7.86
2018-09-15T04:48:06.269Z,7.78
2018-09-15T04:49:41.189Z,7.87
2018-09-15T04:51:17.154Z,7.89
2018-09-15T04:52:57.488Z,7.88
2018-09-15T04:54:32.354Z,7.96
2018-09-15T04:56:07.370Z,8.12
2018-09-15T04:57:42.303Z,8.19
2018-09-15T04:59:18.911Z,8.30
2018-09-15T05:00:53.967Z,8.49
2018-09-15T05:02:29.994Z,8.54
2018-09-15T05:04:04.916Z,8.61
2018-09-15T05:05:39.871Z,8.66
2018-09-15T05:07:16.568Z,8.64
2018-09-15T05:08:52.292Z,8.63
2018-09-15T05:10:28.256Z,8.69
2018-09-15T05:12:03.452Z,8.78
2018-09-15T05:13:40.201Z,8.88
2018-09-15T05:15:17.937Z,8.89
2018-09-15T05:16:53.150Z,8.90
2018-09-15T05:18:28.028Z,8.98
2018-09-15T05:20:02.991Z,8.99
2018-09-15T05:21:38.046Z,8.99
2018-09-15T05:23:14.338Z,9.10
2018-09-15T05:24:49.279Z,9.17
2018-09-15T05:26:24.269Z,9.22
2018-09-15T05:27:59.218Z,9.30
2018-09-15T05:29:35.127Z,9.32
2018-09-15T05:31:11.034Z,9.39
2018-09-15T05:32:47.164Z,9.47
2018-09-15T05:34:24.086Z,9.52
2018-09-15T05:35:59.334Z,9.56
2018-09-15T05:37:35.163Z,9.66
2018-09-15T05:39:13.929Z,9.73
2018-09-15T05:40:50.326Z,9.79
2018-09-15T05:42:25.702Z,9.87
2018-09-15T05:44:00.949Z,9.91
2018-09-15T05:45:36.983Z,9.96
2018-09-15T05:47:13.472Z,10.02
2018-09-15T05:48:50.659Z,10.11
2018-09-15T05:50:27.049Z,10.12
2018-09-15T05:52:05.057Z,10.11
2018-09-15T05:53:41.670Z,10.13
2018-09-15T05:55:21.010Z,10.19
2018-09-15T05:56:59.036Z,10.20
2018-09-15T05:58:34.145Z,10.27
2018-09-15T06:00:09.497Z,10.33
2018-09-15T06:01:45.078Z,10.35
2018-09-15T06:03:20.550Z,10.37
2018-09-15T06:04:56.715Z,10.41
2018-09-15T06:06:31.735Z,10.50
2018-09-15T06:08:07.181Z,10.50
2018-09-15T06:09:42.465Z,10.57
2018-09-15T06:11:18.359Z,10.66
2018-09-15T06:12:53.446Z,10.62
2018-09-15T06:14:28.462Z,10.70
2018-09-15T06:16:03.726Z,10.74
2018-09-15T06:17:38.885Z,10.68
2018-09-15T06:19:14.886Z,10.76
2018-09-15T06:20:50.556Z,10.83
2018-09-15T06:22:27.819Z,10.84
2018-09-15T06:24:04.299Z,10.86
2018-09-15T06:25:40.473Z,10.90
2018-09-15T06:27:16.468Z,10.95
2018-09-15T06:28:51.800Z,11.04
2018-09-15T06:30:30.559Z,11.02
2018-09-15T06:32:06.345Z,11.06
2018-09-15T06:33:42.037Z,11.17
2018-09-15T06:35:19.033Z,11.20
2018-09-15T06:36:54.730Z,11.30
2018-09-15T06:38:30.189Z,11.35
2018-09-15T06:40:06.697Z,11.32
2018-09-15T06:41:42.415Z,11.28
2018-09-15T06:43:17.487Z,11.40
2018-09-15T06:44:52.535Z,11.52
2018-09-15T06:46:28.649Z,11.61
2018-09-15T06:48:04.010Z,11.46
2018-09-15T06:49:39.002Z,11.51
2018-09-15T06:51:14.172Z,11.59
2018-09-15T06:52:49.643Z,11.71
2018-09-15T06:54:27.664Z,11.69
2018-09-15T06:56:04.759Z,11.65
2018-09-15T06:57:42.637Z,11.75
2018-09-15T06:59:21.358Z,11.83
2018-09-15T07:00:57.581Z,11.79
2018-09-15T07:02:32.771Z,11.89
2018-09-15T07:04:12.631Z,11.88
2018-09-15T07:05:47.562Z,11.82
2018-09-15T07:07:23.519Z,11.88
2018-09-15T07:09:02.193Z,12.00
2018-09-15T07:10:40.295Z,12.03
2018-09-15T07:12:15.940Z,12.10
2018-09-15T07:13:51.618Z,12.10
2018-09-15T07:15:28.621Z,12.15
2018-09-15T07:17:05.556Z,12.27
2018-09-15T07:18:41.565Z,12.50
2018-09-15T07:20:16.620Z,12.54
2018-09-15T07:21:53.512Z,12.49
2018-09-15T07:23:28.648Z,12.62
2018-09-15T07:25:03.900Z,12.63
2018-09-15T07:26:39.541Z,12.59
2018-09-15T07:28:15.382Z,12.63
2018-09-15T07:29:50.744Z,12.53
2018-09-15T07:31:28.667Z,12.59
2018-09-15T07:33:04.046Z,12.59
2018-09-15T07:34:40.653Z,12.61
2018-09-15T07:36:17.819Z,12.43
2018-09-15T07:37:54.160Z,12.35
2018-09-15T07:39:32.017Z,12.30
2018-09-15T07:41:08.722Z,12.40
2018-09-15T07:42:46.355Z,12.33
2018-09-15T07:44:22.432Z,12.11
2018-09-15T07:46:02.008Z,12.09
2018-09-15T07:47:37.434Z,12.08
2018-09-15T07:49:13.425Z,12.08
2018-09-15T07:50:48.629Z,12.10
2018-09-15T07:52:25.961Z,12.16
2018-09-15T07:54:02.397Z,12.20
2018-09-15T07:55:37.913Z,12.31
2018-09-15T07:57:22.920Z,12.28
2018-09-15T07:59:01.460Z,12.38
2018-09-15T08:00:39.147Z,12.39
2018-09-15T08:02:21.574Z,12.49
2018-09-15T08:03:59.154Z,12.45
2018-09-15T08:05:36.879Z,12.28
2018-09-15T08:07:20.624Z,12.39
2018-09-15T08:08:57.373Z,12.37
2018-09-15T08:10:36.022Z,12.41
2018-09-15T08:12:12.214Z,12.46
2018-09-15T08:13:47.826Z,12.55
2018-09-15T08:15:24.475Z,12.66
2018-09-15T08:17:00.884Z,12.75
2018-09-15T08:18:39.245Z,12.92
2018-09-15T08:20:17.905Z,13.10
2018-09-15T08:21:55.892Z,13.17
2018-09-15T08:23:33.894Z,13.44
2018-09-15T08:25:11.756Z,13.54
2018-09-15T08:26:46.849Z,13.51
2018-09-15T08:28:22.135Z,13.48
2018-09-15T08:29:59.187Z,13.58
2018-09-15T08:31:35.829Z,13.76
2018-09-15T08:33:11.983Z,13.89
2018-09-15T08:34:48.860Z,14.43
2018-09-15T08:36:28.136Z,14.75
2018-09-15T08:38:05.172Z,15.00
2018-09-15T08:39:52.715Z,14.83
2018-09-15T08:41:28.702Z,15.24
2018-09-15T08:43:04.273Z,15.34
2018-09-15T08:44:41.789Z,15.49
2018-09-15T08:46:18.369Z,15.87
2018-09-15T08:47:54.511Z,16.32
2018-09-15T08:49:29.871Z,16.26
2018-09-15T08:51:08.163Z,16.32
2018-09-15T08:52:46.733Z,16.70
2018-09-15T08:54:25.644Z,16.99
2018-09-15T08:56:01.582Z,16.43
2018-09-15T08:57:37.304Z,15.80
2018-09-15T08:59:16.778Z,15.60
2018-09-15T09:00:54.047Z,15.74
2018-09-15T09:02:31.137Z,16.25
2018-09-15T09:04:12.113Z,16.20
2018-09-15T09:05:52.259Z,16.31
2018-09-15T09:07:27.689Z,16.61
2018-09-15T09:09:04.492Z,16.59
2018-09-15T09:10:42.475Z,16.54
2018-09-15T09:12:18.874Z,16.54
2018-09-15T09:13:54.683Z,16.12
2018-09-15T09:15:30.892Z,16.05
2018-09-15T09:17:07.770Z,16.01
2018-09-15T09:18:47.376Z,16.54
2018-09-15T09:20:26.924Z,16.34
2018-09-15T09:22:03.649Z,16.41
2018-09-15T09:23:43.713Z,16.23
2018-09-15T09:25:19.859Z,16.09
2018-09-15T09:26:59.937Z,15.84
2018-09-15T09:28:46.013Z,16.16
2018-09-15T09:30:29.716Z,15.79
2018-09-15T09:32:10.311Z,15.93
2018-09-15T09:33:47.980Z,15.88
2018-09-15T09:35:24.922Z,16.25
2018-09-15T09:37:02.799Z,15.94
2018-09-15T09:38:43.329Z,15.54
2018-09-15T09:40:36.111Z,15.55
2018-09-15T09:42:21.966Z,15.57
2018-09-15T09:44:04.040Z,15.47
2018-09-15T09:45:41.328Z,15.28
2018-09-15T09:47:20.240Z,15.51
2018-09-15T09:48:58.518Z,15.98
2018-09-15T09:50:38.340Z,16.62
2018-09-15T09:52:14.755Z,17.52
2018-09-15T09:53:52.904Z,17.73
2018-09-15T09:55:32.363Z,17.33
2018-09-15T09:57:21.442Z,17.03
2018-09-15T09:59:03.516Z,16.85
2018-09-15T10:00:48.453Z,16.90
2018-09-15T10:02:28.506Z,16.62
2018-09-15T10:04:06.730Z,16.45
2018-09-15T10:05:42.707Z,16.56
2018-09-15T10:07:21.192Z,16.54
2018-09-15T10:11:31.578Z,16.95
2018-09-15T10:13:20.635Z,16.73
2018-09-15T10:16:51.116Z,16.45
2018-09-15T10:18:26.705Z,16.64
2018-09-15T10:20:02.756Z,16.88
2018-09-15T10:21:40.721Z,16.62
2018-09-15T10:23:21.620Z,16.70
2018-09-15T10:24:57.101Z,16.89
2018-09-15T10:26:36.386Z,16.54
2018-09-15T10:28:24.995Z,16.57
2018-09-15T10:30:09.454Z,16.62
2018-09-15T10:31:48.886Z,16.51
2018-09-15T10:35:18.504Z,15.96
2018-09-15T10:36:58.914Z,16.13
2018-09-15T10:38:38.335Z,15.81
2018-09-15T10:40:15.395Z,15.75
2018-09-15T10:41:53.904Z,15.70
2018-09-15T10:43:37.640Z,15.82
2018-09-15T10:45:20.054Z,15.83
2018-09-15T10:46:57.082Z,15.89
2018-09-15T10:48:32.947Z,15.68
2018-09-15T10:50:09.462Z,15.57
2018-09-15T10:51:52.207Z,15.58
2018-09-15T10:53:30.623Z,15.30
2018-09-15T10:55:09.889Z,15.87
2018-09-15T10:56:46.478Z,16.49
2018-09-15T10:58:25.293Z,17.05
2018-09-15T11:00:06.479Z,16.62
2018-09-15T11:01:42.533Z,16.32
2018-09-15T11:03:24.050Z,16.47
2018-09-15T11:17:04.246Z,16.66
2018-09-15T11:18:45.214Z,16.49
2018-09-15T11:20:23.921Z,16.56
2018-09-15T11:22:05.012Z,16.56
2018-09-15T11:23:52.168Z,16.52
2018-09-15T11:25:35.808Z,16.49
2018-09-15T11:27:14.334Z,16.22
2018-09-15T11:28:51.694Z,16.18
2018-09-15T11:30:28.419Z,15.91
2018-09-15T11:32:06.753Z,15.82
2018-09-15T11:33:44.083Z,15.90
2018-09-15T11:35:23.537Z,15.96
2018-09-15T11:37:02.020Z,15.90
2018-09-15T11:38:39.343Z,15.86
2018-09-15T11:40:18.661Z,15.81
2018-09-15T11:41:55.117Z,15.68
2018-09-15T11:43:44.888Z,15.55
2018-09-15T11:45:23.556Z,15.48
2018-09-15T11:47:03.601Z,15.61
2018-09-15T11:48:41.572Z,15.47
2018-09-15T11:50:18.423Z,15.51
2018-09-15T11:51:55.781Z,15.69
2018-09-15T11:53:43.742Z,15.51
2018-09-15T11:55:20.687Z,15.73
2018-09-15T11:56:57.372Z,15.65
2018-09-15T11:58:33.988Z,15.66
2018-09-15T12:00:11.764Z,15.72
2018-09-15T12:01:51.226Z,15.88
2018-09-15T12:03:30.389Z,15.83
2018-09-15T12:05:09.269Z,16.06
2018-09-15T12:06:47.663Z,16.25
2018-09-15T12:08:25.244Z,16.33
2018-09-15T12:10:02.935Z,16.44
2018-09-15T12:11:41.144Z,16.43
2018-09-15T12:13:18.063Z,16.44
2018-09-15T12:14:58.017Z,16.24
2018-09-15T12:16:35.769Z,16.34
2018-09-15T12:18:11.693Z,16.25
2018-09-15T12:19:54.545Z,16.20
2018-09-15T12:21:31.605Z,16.28
2018-09-15T12:23:07.783Z,16.24
2018-09-15T12:24:43.818Z,16.25
2018-09-15T12:26:23.589Z,15.81
2018-09-15T12:29:51.646Z,15.23
2018-09-15T12:31:43.934Z,15.15
2018-09-15T12:33:22.675Z,15.13
2018-09-15T12:34:59.203Z,15.10
2018-09-15T12:36:39.445Z,15.18
2018-09-15T12:38:17.271Z,15.35
2018-09-15T12:40:02.230Z,15.47
2018-09-15T12:41:41.369Z,15.54
2018-09-15T12:43:21.236Z,15.53
2018-09-15T12:44:58.484Z,15.42
2018-09-15T12:46:38.503Z,15.50
2018-09-15T12:48:15.635Z,15.58
2018-09-15T12:49:51.348Z,15.70
2018-09-15T12:51:26.901Z,15.80
2018-09-15T12:53:03.682Z,15.85
2018-09-15T12:54:40.492Z,15.89
2018-09-15T12:56:19.532Z,16.03
2018-09-15T12:57:59.887Z,16.08
2018-09-15T12:59:35.169Z,16.24
2018-09-15T13:01:11.356Z,16.37
2018-09-15T13:02:53.784Z,16.38
2018-09-15T13:04:32.778Z,16.89
2018-09-15T13:06:11.669Z,17.24
2018-09-15T13:07:51.712Z,17.52
2018-09-15T13:09:32.067Z,17.45
2018-09-15T13:11:16.523Z,17.31
2018-09-15T13:12:59.111Z,17.07
2018-09-15T13:14:50.646Z,17.17
2018-09-15T13:16:28.872Z,16.97
2018-09-15T13:18:12.019Z,17.00
2018-09-15T13:19:55.493Z,17.03
2018-09-15T13:21:41.206Z,16.73
2018-09-15T13:23:22.642Z,16.61
2018-09-15T13:25:01.078Z,16.67
2018-09-15T13:26:43.018Z,16.76
2018-09-15T13:28:22.915Z,16.66
2018-09-15T13:30:03.559Z,16.73
2018-09-15T13:31:47.811Z,16.70
2018-09-15T13:33:22.755Z,16.79
2018-09-15T13:35:00.589Z,16.91
2018-09-15T13:36:36.896Z,16.93
2018-09-15T13:38:14.805Z,17.01
2018-09-15T13:39:51.635Z,16.78
2018-09-15T13:41:27.369Z,16.73
2018-09-15T13:43:06.798Z,16.76
2018-09-15T13:44:42.501Z,16.85
2018-09-15T13:46:20.841Z,16.91
2018-09-15T13:48:08.746Z,16.68
2018-09-15T13:49:54.727Z,16.74
2018-09-15T13:51:32.712Z,16.69
2018-09-15T13:53:12.833Z,16.85
2018-09-15T13:54:50.279Z,16.69
2018-09-15T13:56:27.921Z,16.73
2018-09-15T13:58:06.396Z,16.67
2018-09-15T13:59:44.351Z,16.77
2018-09-15T14:01:23.378Z,16.64
2018-09-15T14:03:02.592Z,16.65
2018-09-15T14:04:42.276Z,16.66
2018-09-15T14:06:20.363Z,16.68
2018-09-15T14:07:55.548Z,16.66
2018-09-15T14:09:43.290Z,16.66
2018-09-15T14:11:13.549Z,16.64
2018-09-15T14:12:48.900Z,16.84
2018-09-15T14:14:24.208Z,16.90
2018-09-15T14:16:02.617Z,16.88
2018-09-15T14:17:39.630Z,16.93
2018-09-15T14:19:19.524Z,16.86
2018-09-15T14:20:58.039Z,16.92
2018-09-15T14:22:35.344Z,16.65
2018-09-15T14:25:55.858Z,16.68
2018-09-15T14:27:32.830Z,16.78
2018-09-15T14:29:11.011Z,16.97
2018-09-15T14:30:49.402Z,16.84
2018-09-15T14:32:26.502Z,16.88
2018-09-15T14:34:01.843Z,16.89
2018-09-15T14:35:42.355Z,16.91
2018-09-15T14:37:23.664Z,16.91
2018-09-15T14:39:00.311Z,16.82
2018-09-15T14:40:39.919Z,16.85
2018-09-15T14:42:21.251Z,16.94
2018-09-15T14:44:01.974Z,16.86
2018-09-15T14:45:44.647Z,16.94
2018-09-15T14:47:23.442Z,16.98
2018-09-15T14:49:00.453Z,17.09
2018-09-15T14:50:37.663Z,17.09
2018-09-15T14:52:15.029Z,17.07
2018-09-15T14:53:51.553Z,17.21
2018-09-15T14:55:31.227Z,17.02
2018-09-15T14:57:06.968Z,16.88
2018-09-15T15:00:49.908Z,16.87
2018-09-15T15:02:28.759Z,16.85
2018-09-15T15:04:09.923Z,16.79
2018-09-15T15:05:57.329Z,16.77
2018-09-15T15:07:34.975Z,16.84
2018-09-15T15:09:11.912Z,16.99
2018-09-15T15:10:49.930Z,16.92
2018-09-15T15:12:33.393Z,16.91
2018-09-15T15:14:11.753Z,17.01
2018-09-15T15:15:47.646Z,16.82
2018-09-15T15:17:26.775Z,16.88
2018-09-15T15:19:08.311Z,16.76
2018-09-15T15:20:50.547Z,16.83
2018-09-15T15:22:26.995Z,16.83
2018-09-15T15:24:03.604Z,16.84
2018-09-15T15:25:39.649Z,16.91
2018-09-15T15:27:17.234Z,16.91
2018-09-15T15:28:53.705Z,16.88
2018-09-15T15:30:30.353Z,16.76
2018-09-15T15:32:11.935Z,16.75
2018-09-15T15:33:50.484Z,16.64
2018-09-15T15:35:26.527Z,16.56
2018-09-15T15:37:03.337Z,16.51
2018-09-15T15:38:43.565Z,16.61
2018-09-15T15:40:24.521Z,16.56
2018-09-15T15:42:08.557Z,16.46
2018-09-15T15:43:46.205Z,16.43
2018-09-15T15:45:22.200Z,16.48
2018-09-15T15:47:01.969Z,16.46
2018-09-15T15:48:40.843Z,16.38
2018-09-15T15:50:17.658Z,16.37
2018-09-15T15:51:54.581Z,16.43
2018-09-15T15:53:33.851Z,16.38
2018-09-15T15:55:18.624Z,16.28
2018-09-15T15:57:04.048Z,16.36
2018-09-15T15:58:42.908Z,16.29
2018-09-15T16:00:22.553Z,16.23
2018-09-15T16:02:04.319Z,16.19
2018-09-15T16:03:53.503Z,16.20
2018-09-15T16:05:33.947Z,15.94
2018-09-15T16:07:17.470Z,15.96
2018-09-15T16:11:05.569Z,15.92
2018-09-15T16:12:41.904Z,15.95
2018-09-15T16:14:19.390Z,15.84
2018-09-15T16:16:01.312Z,15.86
2018-09-15T16:17:41.206Z,15.72
2018-09-15T16:19:18.367Z,15.65
2018-09-15T16:27:06.772Z,15.88
2018-09-15T16:28:45.233Z,15.78
2018-09-15T16:30:36.757Z,15.69
2018-09-15T16:32:14.618Z,15.72
2018-09-15T16:33:56.480Z,15.65
2018-09-15T16:35:35.437Z,15.64
2018-09-15T16:37:17.603Z,15.50
2018-09-15T16:38:59.640Z,15.46
2018-09-15T16:40:37.635Z,15.32
2018-09-15T16:42:19.602Z,15.37
2018-09-15T16:44:01.225Z,15.33
2018-09-15T16:45:43.233Z,15.31
2018-09-15T16:47:24.369Z,15.26
2018-09-15T16:48:59.632Z,15.26
2018-09-15T16:50:36.440Z,15.19
2018-09-15T16:52:12.904Z,15.15
2018-09-15T16:53:51.013Z,15.12
2018-09-15T16:55:29.322Z,15.11
2018-09-15T16:57:11.722Z,15.12
2018-09-15T16:58:48.459Z,15.14
2018-09-15T17:00:24.397Z,15.12
2018-09-15T17:02:01.526Z,15.12
2018-09-15T17:03:41.182Z,15.07
2018-09-15T17:05:20.817Z,15.05
2018-09-15T17:06:58.377Z,15.05
2018-09-15T17:08:38.218Z,15.01
2018-09-15T17:10:24.215Z,14.94
2018-09-15T17:12:01.610Z,14.87
2018-09-15T17:13:40.666Z,14.82
2018-09-15T17:15:23.237Z,14.77
2018-09-15T17:17:07.079Z,14.74
2018-09-15T17:18:45.762Z,14.77
2018-09-15T17:20:28.004Z,14.69
2018-09-15T17:22:09.829Z,14.61
2018-09-15T17:23:54.679Z,14.58
2018-09-15T17:25:32.388Z,14.49
2018-09-15T17:27:11.422Z,14.49
2018-09-15T17:28:49.476Z,14.39
2018-09-15T17:30:27.962Z,14.27
2018-09-15T17:32:10.243Z,14.26
2018-09-15T17:33:46.115Z,14.11
2018-09-15T17:35:25.577Z,14.02
2018-09-15T17:37:05.409Z,13.91
2018-09-15T17:38:43.845Z,13.71
2018-09-15T17:40:23.829Z,13.62
2018-09-15T17:42:02.179Z,13.51
2018-09-15T17:43:50.327Z,13.40
2018-09-15T17:45:29.078Z,13.21
2018-09-15T17:47:05.871Z,13.04
2018-09-15T17:48:48.676Z,12.91
2018-09-15T17:50:29.248Z,12.75
2018-09-15T17:52:09.866Z,12.60
2018-09-15T17:53:46.863Z,12.53
2018-09-15T17:55:26.280Z,12.42
2018-09-15T17:57:05.687Z,12.39
2018-09-15T17:58:46.465Z,12.29
2018-09-15T18:00:27.763Z,12.14
2018-09-15T18:02:08.302Z,12.12
2018-09-15T18:03:50.197Z,11.96
2018-09-15T18:05:29.761Z,11.96
2018-09-15T18:07:18.806Z,11.92
2018-09-15T18:09:02.084Z,11.89
2018-09-15T18:10:40.011Z,11.86
2018-09-15T18:12:16.590Z,11.71
2018-09-15T18:14:04.148Z,11.54
2018-09-15T18:15:46.574Z,11.39
2018-09-15T18:17:24.275Z,11.29
2018-09-15T18:19:17.004Z,11.23
2018-09-15T18:20:54.039Z,11.18
2018-09-15T18:22:38.911Z,11.10
2018-09-15T18:24:19.494Z,11.06
2018-09-15T18:25:58.296Z,10.97
2018-09-15T18:27:38.628Z,10.84
2018-09-15T18:29:16.225Z,10.79
2018-09-15T18:30:52.867Z,10.69
2018-09-15T18:32:36.935Z,10.61
2018-09-15T18:34:20.432Z,10.50
2018-09-15T18:35:57.816Z,10.48
2018-09-15T18:37:40.312Z,10.45
2018-09-15T18:39:20.269Z,10.49
2018-09-15T18:41:02.022Z,10.43
2018-09-15T18:42:38.373Z,10.48
2018-09-15T18:44:16.129Z,10.39
2018-09-15T18:45:57.344Z,10.26
2018-09-15T18:47:33.633Z,10.28
2018-09-15T18:49:15.447Z,10.14
2018-09-15T18:50:51.695Z,10.04
2018-09-15T18:52:27.284Z,9.92
2018-09-15T18:54:08.635Z,9.90
2018-09-15T18:55:46.181Z,9.85
2018-09-15T18:57:24.492Z,9.87
2018-09-15T18:59:01.475Z,9.85
2018-09-15T19:01:51.291Z,9.75
2018-09-15T19:03:37.386Z,9.85
2018-09-15T19:05:18.846Z,9.91
2018-09-15T19:06:56.973Z,9.80
2018-09-15T19:08:35.238Z,9.81
2018-09-15T19:10:13.313Z,9.73
2018-09-15T19:11:53.107Z,9.77
2018-09-15T19:13:31.413Z,9.73
2018-09-15T19:15:16.760Z,9.78
2018-09-15T19:16:55.750Z,9.84
2018-09-15T19:20:13.749Z,9.81
2018-09-15T19:21:49.342Z,9.76
2018-09-15T19:23:25.746Z,9.83
2018-09-15T19:25:06.119Z,9.77
2018-09-15T19:26:48.567Z,9.72
2018-09-15T19:28:30.904Z,9.69
2018-09-15T19:32:53.154Z,9.54
2018-09-15T19:34:32.382Z,9.53
